Currently 68°F in Anza, California, USA
68°F
68°F / 55°F
4 mph SW
0.00"
Monday, October 21, 2019 8:40 AM PDT

Anza, California Weather Summary
Last 36 Hours

Temperature Winds Hourly Humidity Dewpoint
Time Report Norm Report Norm Max Gusts Precip. Rpt. Norm Rpt. Norm Pressure
1,2Mon 08:40 AM  68.0°F  63°F  4 mph SW  6 mph  10 mph  0.00"  29%  50%  33°F  44°F  N/A
Mon 08:00 AM  63.7°F  58°F  calm  4 mph  8 mph  0.00"  35%  59%  34°F  43°F  N/A
Mon 07:00 AM  55.9°F  52°F  calm  5 mph  5 mph  0.00"  41%  65%  31°F  40°F  N/A
3Mon 06:52 AM  55.2°F  52°F  calm  4 mph  4 mph  ----  42%  65%  31°F  40°F  N/A
Mon 06:00 AM  60.5°F  52°F  calm  4 mph  15 mph  0.00"  35%  65%  32°F  40°F  N/A
Mon 05:00 AM  59.6°F  52°F  calm  4 mph  10 mph  0.00"  36%  65%  31°F  40°F  N/A
Mon 04:00 AM  59.3°F  53°F  calm  5 mph  10 mph  0.00"  36%  65%  31°F  41°F  N/A
Mon 03:00 AM  58.4°F  53°F  calm  4 mph  10 mph  0.00"  36%  65%  30°F  41°F  N/A
Mon 02:00 AM  63.4°F  53°F  calm  4 mph  14 mph  0.00"  31%  65%  31°F  41°F  N/A
Mon 01:00 AM  62.5°F  53°F  calm  4 mph  10 mph  0.00"  32%  66%  31°F  42°F  N/A
Mon 12:00 AM  61.2°F  54°F  calm  4 mph  12 mph  0.00"  32%  66%  30°F  42°F  N/A
Sun 11:00 PM  63.6°F  54°F  calm  4 mph  16 mph  0.00"  30%  65%  30°F  43°F  N/A
Sun 10:00 PM  63.8°F  55°F  calm  4 mph  16 mph  0.00"  31%  65%  31°F  43°F  N/A
Sun 09:00 PM  64.1°F  56°F  calm  4 mph  12 mph  0.00"  32%  63%  32°F  43°F  N/A
Sun 08:00 PM  63.8°F  59°F  6 mph SW  4 mph  14 mph  0.00"  33%  59%  33°F  44°F  N/A
Sun 07:00 PM  64.7°F  62°F  5 mph S  5 mph  12 mph  0.00"  32%  54%  33°F  44°F  N/A
Sun 06:00 PM  68.4°F  67°F  2 mph N  6 mph  12 mph  0.00"  29%  46%  33°F  45°F  N/A
Sun 05:00 PM  72.3°F  71°F  calm  9 mph  15 mph  0.00"  26%  39%  34°F  44°F  N/A
Sun 04:00 PM  73.3°F  73°F  4 mph NW  9 mph  16 mph  0.00"  24%  34%  33°F  42°F  N/A
Sun 03:00 PM  74.0°F  74°F  6 mph SW  10 mph  20 mph  0.00"  24%  33%  33°F  42°F  N/A
Sun 02:00 PM  73.9°F  75°F  9 mph S  10 mph  62 mph  0.00"  25%  32%  35°F  42°F  N/A
Sun 01:00 PM  73.2°F  74°F  6 mph SE  9 mph  19 mph  0.00"  26%  31%  35°F  41°F  N/A
Sun 12:00 PM  71.5°F  73°F  10 mph E  9 mph  66 mph  0.00"  27%  32%  34°F  41°F  N/A
Sun 11:00 AM  69.5°F  72°F  13 mph NE  9 mph  47 mph  0.00"  29%  36%  35°F  42°F  N/A
Sun 10:00 AM  68.4°F  70°F  7 mph E  8 mph  69 mph  0.00"  30%  39%  35°F  43°F  N/A
Sun 09:00 AM  66.5°F  66°F  10 mph NE  7 mph  49 mph  0.00"  32%  46%  35°F  44°F  N/A
Sun 08:00 AM  60.2°F  58°F  6 mph E  4 mph  13 mph  0.00"  42%  59%  36°F  43°F  N/A
Sun 07:00 AM  47.4°F  52°F  4 mph E  5 mph  9 mph  0.00"  75%  65%  39°F  40°F  N/A
Sun 06:00 AM  54.4°F  52°F  4 mph S  4 mph  13 mph  0.00"  59%  65%  40°F  40°F  N/A
Sun 05:00 AM  54.3°F  53°F  7 mph NW  4 mph  12 mph  0.00"  56%  65%  38°F  41°F  N/A
Sun 04:00 AM  52.8°F  53°F  1 mph NW  5 mph  11 mph  0.00"  63%  65%  40°F  41°F  N/A
Sun 03:00 AM  53.2°F  53°F  1 mph N  4 mph  14 mph  0.00"  62%  64%  40°F  41°F  N/A
Sun 02:00 AM  52.1°F  54°F  6 mph N  4 mph  12 mph  0.00"  57%  65%  37°F  42°F  N/A
Sun 01:00 AM  50.3°F  54°F  calm  4 mph  none  0.00"  70%  65%  41°F  42°F  N/A
Sun 12:00 AM  53.4°F  54°F  calm  4 mph  7 mph  0.00"  69%  65%  43°F  42°F  N/A
Sat 11:00 PM  51.6°F  55°F  4 mph NW  4 mph  7 mph  0.00"  70%  65%  42°F  43°F  N/A
Sat 10:00 PM  53.0°F  55°F  calm  4 mph  7 mph  0.00"  67%  65%  42°F  43°F  N/A
Sat 09:00 PM  54.3°F  57°F  3 mph NW  4 mph  12 mph  0.00"  65%  63%  42°F  44°F  N/A

  1. Current weather data. No green row appears if the current weather data is also the high or low for the current day.
  2. High temperature for the current day.
  3. Low temperature for the current day.

The Anza, California weather pages are a service of WeatherCurrents. The Anza Valley is southwestern Riverside County, east of Temecula and Aguanga, south of Mount San Jacinto and west of Mount Santa Rosa.
Copyright ©2019  WeatherCurrents. All rights reserved. - Submit questions and comments - Privacy Policy

This page automatically refreshes every 10 minutes.